• Join FlightAware (Why Join?)
  • Login
  • US Flag 
04:46AM EDT


 

Airport Tracker/Info


-or-


 

Live Flight TrackerFlight Track Log ✈ AAL80 ✈ 03-May-2012 ✈ KDFW - EGLL / LHR

Flight Track Log - Related Links

Times and Time Zones

All times are in EDT time to prevent confusion due to time zone crossing. See the AAL80 flight status page for this flight to view local times or setup timezone preferences in your user account.

Time Position Orientation Groundspeed Altitude Reporting Facility
EDT Latitude Longitude Course Direction KTS MPH feet Rate Location/Type
10:15PM 32.8660 -97.0264 299° West  Level FlightAware Approximate
10:15PM 32.8781 -97.0519 185° South 220 253 1,500  Level FAA TRACON SMA TRACON (SMA)
10:16PM 32.8436 -97.0556 196° South 182 209 2,500 1,680 Climbing FAA TRACON SMA TRACON (SMA)
10:17PM 32.8028 -97.0692 216° Southwest 228 262 3,800 1,800 Climbing FAA TRACON SMA TRACON (SMA)
10:17PM 32.7706 -97.0975 264° West 259 298 5,000 2,040 Climbing FAA TRACON SMA TRACON (SMA)
10:18PM 32.7647 -97.1586 276° West 281 323 6,600 2,280 Climbing FAA TRACON SMA TRACON (SMA)
10:19PM 32.7706 -97.2239 320° Northwest 308 354 8,100 2,220 Climbing FAA TRACON SMA TRACON (SMA)
10:19PM 32.8094 -97.2625 348° North 319 367 9,600 2,100 Climbing FAA TRACON SMA TRACON (SMA)
10:20PM 32.8678 -97.2769 19° North 332 382 10,900 1,620 Climbing FAA TRACON SMA TRACON (SMA)
10:21PM 32.9308 -97.2508 33° Northeast 362 417 11,800 1,380 Climbing FAA TRACON SMA TRACON (SMA)
10:21PM 32.9864 -97.2078 34° Northeast 387 445 12,800 1,800 Climbing FAA TRACON SMA TRACON (SMA)
10:22PM 33.0519 -97.1547 34° Northeast 416 479 14,300 2,280 Climbing FAA TRACON SMA TRACON (SMA)
10:23PM 33.1111 -97.1069 34° Northeast 426 490 15,900 2,460 Climbing FAA TRACON SMA TRACON (SMA)
10:23PM 33.1775 -97.0525 34° Northeast 419 482 17,500 2,280 Climbing FAA TRACON SMA TRACON (SMA)
10:24PM 33.2450 -96.9978 33° Northeast 424 488 19,000 2,100 Climbing FAA TRACON SMA TRACON (SMA)
10:25PM 33.3064 -96.9494 35° Northeast 432 497 20,300 1,800 Climbing FAA TRACON SMA TRACON (SMA)
10:25PM 33.3772 -96.8906 34° Northeast 449 517 21,400 1,740 Climbing FAA TRACON SMA TRACON (SMA)
10:26PM 33.4503 -96.8314 29° Northeast 458 527 22,600 1,620 Climbing FAA TRACON SMA TRACON (SMA)
10:27PM 33.5200 -96.7850 28° Northeast 470 541 23,600 1,500 Climbing FAA TRACON SMA TRACON (SMA)
10:27PM 33.6008 -96.7342 28° Northeast 474 545 24,700 1,500 Climbing FAA TRACON SMA TRACON (SMA)
10:28PM 33.6831 -96.6825 28° Northeast 482 555 25,600 1,380 Climbing FAA TRACON SMA TRACON (SMA)
10:29PM 33.7575 -96.6356 29° Northeast 491 565 26,600 1,440 Climbing FAA TRACON SMA TRACON (SMA)
10:30PM 33.8844 -96.5503 28° Northeast 486 559 28,100 1,500 Climbing Fort Worth Center
10:31PM 34.0092 -96.4714 33° Northeast 497 572 29,700 1,500 Climbing Fort Worth Center
10:32PM 34.1086 -96.3925 35° Northeast 492 566 31,100 1,200 Climbing Fort Worth Center
10:33PM 34.2247 -96.2958 34° Northeast 487 560 32,200 900 Climbing Fort Worth Center
10:34PM 34.3408 -96.2011 34° Northeast 492 566 33,000 360 Climbing Fort Worth Center
10:35PM 34.4608 -96.1014 34° Northeast 503 579 33,000  Level Fort Worth Center
10:36PM 34.5869 -95.9986 35° Northeast 503 579 33,000  Level Fort Worth Center
10:37PM 34.7006 -95.9031 34° Northeast 503 579 33,000  Level Fort Worth Center
10:38PM 34.8142 -95.8100 35° Northeast 498 573 33,000  Level Fort Worth Center
10:39PM 34.9275 -95.7117 37° Northeast 493 567 33,000  Level Fort Worth Center
10:40PM 35.0367 -95.6106 38° Northeast 493 567 33,000  Level Fort Worth Center
10:42PM 35.2731 -95.3850 37° Northeast 495 570 33,000  Level Memphis Center
10:43PM 35.3836 -95.2822 38° Northeast 495 570 33,000  Level Memphis Center
10:44PM 35.4900 -95.1789 38° Northeast 495 570 33,000  Level Memphis Center
10:45PM 35.5981 -95.0753 38° Northeast 495 570 33,000  Level Memphis Center
10:46PM 35.7064 -94.9692 38° Northeast 490 564 33,000  Level Memphis Center
10:47PM 35.8144 -94.8650 38° Northeast 490 564 33,000  Level Memphis Center
10:48PM 35.9225 -94.7606 39° Northeast 490 564 33,000  Level Memphis Center
10:49PM 36.0261 -94.6558 38° Northeast 485 558 33,000  Level Memphis Center
10:50PM 36.1339 -94.5511 38° Northeast 485 558 33,000  Level Memphis Center
10:51PM 36.2417 -94.4458 39° Northeast 485 558 33,000  Level Memphis Center
10:52PM 36.3472 -94.3403 39° Northeast 485 558 33,000  Level Memphis Center
10:53PM 36.4047 -94.2817 38° Northeast 504 580 33,000  Level Kansas City Center
10:54PM 36.5108 -94.1778 39° Northeast 510 587 33,000  Level Kansas City Center
10:55PM 36.6189 -94.0686 38° Northeast 498 573 33,000  Level Kansas City Center
10:56PM 36.7250 -93.9644 38° Northeast 492 566 33,000  Level Kansas City Center
10:57PM 36.8331 -93.8572 37° Northeast 492 566 33,000  Level Kansas City Center
10:58PM 36.9533 -93.7444 38° Northeast 492 566 33,000  Level Kansas City Center
10:59PM 37.0589 -93.6394 39° Northeast 492 566 33,000  Level Kansas City Center
11:00PM 37.1644 -93.5339 39° Northeast 485 558 33,000  Level Kansas City Center
11:01PM 37.2700 -93.4256 39° Northeast 485 558 33,000  Level Kansas City Center
11:02PM 37.3753 -93.3194 36° Northeast 485 558 33,000  Level Kansas City Center
11:03PM 37.4725 -93.2317 36° Northeast 485 558 33,000  Level Kansas City Center
11:04PM 37.5819 -93.1303 36° Northeast 478 550 33,000  Level Kansas City Center
11:05PM 37.6914 -93.0311 37° Northeast 478 550 33,000  Level Kansas City Center
11:06PM 37.8006 -92.9264 36° Northeast 478 550 33,000  Level Kansas City Center
11:07PM 37.9075 -92.8269 36° Northeast 478 550 33,000  Level Kansas City Center
11:08PM 38.0167 -92.7269 36° Northeast 478 550 33,000  Level Kansas City Center
11:09PM 38.1278 -92.6239 37° Northeast 478 550 33,000  Level Kansas City Center
11:10PM 38.2367 -92.5206 38° Northeast 478 550 33,000  Level Kansas City Center
11:11PM 38.3431 -92.4144 37° Northeast 478 550 33,000  Level Kansas City Center
11:12PM 38.4600 -92.3025 36° Northeast 473 544 33,000  Level Kansas City Center
11:13PM 38.5706 -92.1983 37° Northeast 473 544 33,000  Level Kansas City Center
11:14PM 38.6811 -92.0911 37° Northeast 473 544 33,000  Level Kansas City Center
11:15PM 38.7875 -91.9892 37° Northeast 478 550 33,000  Level Kansas City Center
11:16PM 38.8956 -91.8839 37° Northeast 478 550 33,000  Level Kansas City Center
11:17PM 39.0039 -91.7786 38° Northeast 478 550 33,000  Level Kansas City Center
11:18PM 39.1078 -91.6756 37° Northeast 473 544 33,000  Level Kansas City Center
11:19PM 39.2156 -91.5697 49° Northeast 473 544 33,000  Level Kansas City Center
11:20PM 39.2961 -91.4511 54° Northeast 473 544 33,000  Level Kansas City Center
11:21PM 39.3797 -91.2997 54° Northeast 472 543 33,000  Level Kansas City Center
11:22PM 39.4592 -91.1592 55° Northeast 480 552 33,000  Level Kansas City Center
11:23PM 39.5364 -91.0156 53° Northeast 480 552 33,000  Level Kansas City Center
11:24PM 39.6078 -90.8908 53° Northeast 475 547 33,000  Level Kansas City Center
11:25PM 39.6889 -90.7519 55° Northeast 475 547 33,000  Level Kansas City Center
11:26PM 39.7675 -90.6075 54° Northeast 481 554 33,000  Level Kansas City Center
11:27PM 39.8464 -90.4681 54° Northeast 481 554 33,000  Level Kansas City Center
11:28PM 39.9228 -90.3283 54° Northeast 481 554 33,000  Level Kansas City Center
11:29PM 40.0031 -90.1828 54° Northeast 481 554 33,000  Level Kansas City Center
11:31PM 40.1772 -89.8636 55° Northeast 483 556 33,000  Level Chicago Center
11:32PM 40.2550 -89.7200 55° Northeast 483 556 33,000  Level Chicago Center
11:33PM 40.3325 -89.5761 55° Northeast 483 556 33,000  Level Chicago Center
11:34PM 40.4097 -89.4292 56° Northeast 488 562 33,000  Level Chicago Center
11:35PM 40.4847 -89.2817 68° East 488 562 33,000  Level Chicago Center
11:36PM 40.5325 -89.1286 65° Northeast 488 562 33,000  Level Chicago Center
11:37PM 40.5906 -88.9617 66° East 488 562 33,000  Level Chicago Center
11:38PM 40.6439 -88.8000 68° East 488 562 33,000  Level Chicago Center
11:39PM 40.6953 -88.6297 67° East 483 556 33,000  Level Chicago Center
11:40PM 40.7483 -88.4647 66° East 483 556 33,000  Level Chicago Center
11:41PM 40.8053 -88.2967 67° East 488 562 33,000  Level Chicago Center
11:42PM 40.8578 -88.1311 68° East 488 562 33,000  Level Chicago Center
11:43PM 40.9078 -87.9653 64° Northeast 488 562 33,000  Level Chicago Center
11:44PM 40.9664 -87.8044 67° East 483 556 33,000  Level Chicago Center
11:45PM 41.0242 -87.6242 65° Northeast 478 550 33,000  Level Chicago Center
11:46PM 41.0800 -87.4631 66° East 478 550 33,000  Level Chicago Center
11:47PM 41.1336 -87.3042 65° Northeast 478 550 33,000  Level Chicago Center
11:48PM 41.1911 -87.1425 45° Northeast 478 550 33,000  Level Chicago Center
11:49PM 41.2864 -87.0150 43° Northeast 478 550 33,000  Level Chicago Center
11:50PM 41.3861 -86.8922 41° Northeast 478 550 33,000  Level Chicago Center
11:51PM 41.4897 -86.7719 44° Northeast 483 556 33,000  Level Chicago Center
11:52PM 41.5889 -86.6431 46° Northeast 488 562 33,000  Level Chicago Center
11:53PM 41.6856 -86.5081 46° Northeast 488 562 33,000  Level Chicago Center
11:54PM 41.7822 -86.3731 49° Northeast 488 562 33,000  Level Chicago Center
11:55PM 41.8625 -86.2494 46° Northeast 493 567 33,000  Level Chicago Center
11:56PM 41.9567 -86.1164 42° Northeast 487 560 33,000  Level Chicago Center
11:57PM 42.0575 -85.9936 35° Northeast 487 560 33,000  Level Chicago Center
11:58PM 42.1692 -85.8897 42° Northeast 487 560 33,000  Level Chicago Center
11:59PM 42.2697 -85.7692 43° Northeast 487 560 33,000  Level Chicago Center
12:00AM 42.3700 -85.6428 42° Northeast 481 554 33,000  Level Chicago Center
12:01AM 42.5372 -85.4364 42° Northeast 475 547 33,000  Level Cleveland Center
12:02AM 42.6383 -85.3114 42° Northeast 482 555 33,000  Level Cleveland Center
12:03AM 42.7414 -85.1833 42° Northeast 482 555 33,000  Level Cleveland Center
12:04AM 42.8422 -85.0578 42° Northeast 482 555 33,000  Level Cleveland Center
12:05AM 42.9431 -84.9317 43° Northeast 488 562 33,000  Level Cleveland Center
12:06AM 43.0458 -84.8025 43° Northeast 488 562 33,000  Level Cleveland Center
12:07AM 43.1572 -84.6592 43° Northeast 488 562 33,000  Level Cleveland Center
12:08AM 43.2597 -84.5289 41° Northeast 488 562 33,000  Level Cleveland Center
12:09AM 43.3661 -84.4014 46° Northeast 488 562 33,000  Level Cleveland Center
12:11AM 43.5167 -84.1833 43° Northeast 510 587 33,000  Level Toronto Center
12:12AM 43.6333 -84.0333 44° Northeast 520 598 33,000  Level Toronto Center
12:13AM 43.7333 -83.9000 49° Northeast 510 587 33,000  Level Toronto Center
12:14AM 43.8167 -83.7667 35° Northeast 510 587 33,000  Level Toronto Center
12:15AM 43.9469 -83.6389 44° Northeast 512 589 33,000  Level Minneapolis Center
12:16AM 44.0497 -83.5025 44° Northeast 512 589 33,000  Level Minneapolis Center
12:17AM 44.1522 -83.3631 43° Northeast 512 589 33,000  Level Minneapolis Center
12:18AM 44.2589 -83.2250 46° Northeast 519 597 33,000  Level Minneapolis Center
12:19AM 44.3667 -83.0667 49° Northeast 530 610 33,000  Level Toronto Center
12:20AM 44.4500 -82.9333 39° Northeast 520 598 33,000  Level Toronto Center
12:21AM 44.5667 -82.8000 47° Northeast 530 610 33,000  Level Toronto Center
12:22AM 44.6667 -82.6500 43° Northeast 510 587 33,000  Level Toronto Center
12:23AM 44.7667 -82.5167 47° Northeast 520 598 33,000  Level Toronto Center
12:24AM 44.8667 -82.3667 43° Northeast 520 598 33,000  Level Toronto Center
12:25AM 44.9667 -82.2333 50° Northeast 530 610 33,000  Level Toronto Center
12:26AM 45.0667 -82.0667 39° Northeast 520 598 33,000 360 Level Toronto Center
12:27AM 45.1833 -81.9333 47° Northeast 520 598 33,800 900 Climbing Toronto Center
12:28AM 45.2833 -81.7833 43° Northeast 510 587 34,800 600 Climbing Toronto Center
12:29AM 45.3833 -81.6500 43° Northeast 510 587 35,000 60 Climbing Toronto Center
12:30AM 45.4833 -81.5167 49° Northeast 520 598 35,000  Level Toronto Center
12:31AM 45.5833 -81.3500 46° Northeast 520 598 35,000  Level Toronto Center
12:32AM 45.6833 -81.2000 43° Northeast 520 598 35,000  Level Toronto Center
12:33AM 45.7833 -81.0667 49° Northeast 520 598 35,000  Level Toronto Center
12:34AM 45.8833 -80.9000 43° Northeast 510 587 35,000  Level Toronto Center
12:35AM 45.9833 -80.7667 42° Northeast 510 587 35,000  Level Toronto Center
12:36AM 46.1000 -80.6167 51° Northeast 510 587 35,000  Level Toronto Center
12:37AM 46.1833 -80.4667 49° Northeast 510 587 35,000  Level Toronto Center
12:38AM 46.2833 -80.3000 43° Northeast 520 598 35,000  Level Toronto Center
12:39AM 46.3833 -80.1667 46° Northeast 520 598 35,000  Level Toronto Center
12:40AM 46.4833 -80.0167 46° Northeast 520 598 35,000  Level Toronto Center
12:41AM 46.5833 -79.8667 49° Northeast 530 610 35,000  Level Toronto Center
12:42AM 46.6833 -79.7000 42° Northeast 530 610 35,000  Level Toronto Center
12:43AM 46.7833 -79.5667 47° Northeast 530 610 35,000  Level Toronto Center
12:44AM 46.9000 -79.3833 51° Northeast 530 610 35,000  Level Toronto Center
12:45AM 46.9833 -79.2333 44° Northeast 540 621 35,000  Level Toronto Center
12:46AM 47.1000 -79.0667 46° Northeast 540 621 35,000  Level Toronto Center
12:47AM 47.2000 -78.9167 48° Northeast 540 621 35,000  Level Toronto Center
12:48AM 47.3000 -78.7500 45° Northeast 540 621 35,000  Level Toronto Center
12:49AM 47.4000 -78.6000 45° Northeast 540 621 35,000  Level Toronto Center
12:50AM 47.5000 -78.4500 51° Northeast 540 621 35,000  Level Toronto Center
12:51AM 47.6000 -78.2667 48° Northeast 540 621 35,000  Level Toronto Center
12:52AM 47.7000 -78.1000 45° Northeast 540 621 35,000  Level Toronto Center
12:53AM 47.8000 -77.9500 51° Northeast 540 621 35,000  Level Toronto Center
12:54AM 47.9000 -77.7667 46° Northeast 540 621 35,000  Level Toronto Center
12:55AM 48.0167 -77.5833 45° Northeast 540 621 35,000  Level Toronto Center
12:56AM 48.1167 -77.4333 50° Northeast 550 633 35,000  Level Toronto Center
12:57AM 48.2000 -77.2833 51° Northeast 550 633 35,000  Level Toronto Center
12:58AM 48.3000 -77.1000 51° Northeast 540 621 35,000  Level Toronto Center
12:59AM 48.4000 -76.9167 46° Northeast 550 633 35,000  Level Toronto Center
01:00AM 48.5167 -76.7333 50° Northeast 550 633 35,000  Level Toronto Center
01:01AM 48.6000 -76.5833 43° Northeast 550 633 35,000  Level Toronto Center
01:02AM 48.7167 -76.4167 45° Northeast 540 621 35,000  Level Montreal Center
01:03AM 48.8167 -76.2667 53° Northeast 540 621 35,000  Level Montreal Center
01:04AM 48.9167 -76.0667 45° Northeast 540 621 35,000  Level Montreal Center
01:05AM 49.0167 -75.9167 50° Northeast 540 621 35,000  Level Montreal Center
01:06AM 49.1167 -75.7333 55° Northeast 540 621 35,000  Level Montreal Center
01:07AM 49.2000 -75.5500 44° Northeast 540 621 35,000  Level Montreal Center
01:08AM 49.3000 -75.4000 55° Northeast 540 621 35,000  Level Montreal Center
01:09AM 49.4000 -75.1833 44° Northeast 540 621 35,000  Level Montreal Center
01:10AM 49.5000 -75.0333 50° Northeast 540 621 35,000  Level Montreal Center
01:11AM 49.6000 -74.8500 50° Northeast 540 621 35,000  Level Montreal Center
01:12AM 49.7000 -74.6667 50° Northeast 540 621 35,000  Level Montreal Center
01:13AM 49.8000 -74.4833 55° Northeast 540 621 35,000  Level Montreal Center
01:14AM 49.8833 -74.3000 54° Northeast 540 621 35,000  Level Montreal Center
01:16AM 50.0667 -73.9000 54° Northeast 540 621 35,000  Level Montreal Center
01:17AM 50.1667 -73.6833 55° Northeast 540 621 35,000  Level Montreal Center
01:18AM 50.2500 -73.5000 57° Northeast 540 621 35,000  Level Montreal Center
01:19AM 50.3333 -73.3000 49° Northeast 540 621 35,000  Level Montreal Center
01:20AM 50.4333 -73.1167 62° Northeast 540 621 35,000  Level Montreal Center
01:21AM 50.5000 -72.9167 49° Northeast 540 621 35,000  Level Montreal Center
01:22AM 50.6000 -72.7333 57° Northeast 540 621 35,000  Level Montreal Center
01:23AM 50.6833 -72.5333 54° Northeast 540 621 35,000  Level Montreal Center
01:24AM 50.7667 -72.3500 57° Northeast 540 621 35,000  Level Montreal Center
01:25AM 50.8500 -72.1500 52° Northeast 540 621 35,000  Level Montreal Center
01:26AM 50.9500 -71.9500 60° Northeast 530 610 35,000  Level Montreal Center
01:27AM 51.0167 -71.7667 56° Northeast 530 610 35,000  Level Montreal Center
01:28AM 51.1000 -71.5667 51° Northeast 530 610 35,000  Level Montreal Center
01:29AM 51.2000 -71.3667 62° Northeast 530 610 35,000  Level Montreal Center
01:30AM 51.2667 -71.1667 49° Northeast 530 610 35,000  Level Montreal Center
01:31AM 51.3667 -70.9833 62° Northeast 530 610 35,000  Level Montreal Center
01:32AM 51.4333 -70.7833 51° Northeast 530 610 35,000  Level Montreal Center
01:33AM 51.5333 -70.5833 62° Northeast 520 598 35,000  Level Montreal Center
01:34AM 51.6000 -70.3833 56° Northeast 520 598 35,000  Level Montreal Center
01:35AM 51.6833 -70.1833 62° Northeast 510 587 35,000  Level Montreal Center
01:36AM 51.7500 -69.9833 49° Northeast 510 587 35,000  Level Montreal Center
01:37AM 51.8500 -69.8000 62° Northeast 520 598 35,000  Level Montreal Center
01:38AM 51.9167 -69.6000 56° Northeast 510 587 35,000  Level Montreal Center
01:39AM 52.0000 -69.4000 59° Northeast 510 587 35,000  Level Montreal Center
01:40AM 52.0667 -69.2167 61° Northeast 510 587 35,000  Level Montreal Center
01:41AM 52.1333 -69.0167 56° Northeast 510 587 35,000  Level Montreal Center
01:42AM 52.2167 -68.8167 63° Northeast 510 587 35,000  Level Montreal Center
01:43AM 52.2833 -68.6000 61° Northeast 500 575 35,000  Level Montreal Center
01:44AM 52.3500 -68.4000 56° Northeast 500 575 35,000  Level Montreal Center
01:45AM 52.4333 -68.2000 59° Northeast 510 587 35,000  Level Montreal Center
01:46AM 52.5000 -68.0167 61° Northeast 500 575 35,000  Level Montreal Center
01:47AM 52.5667 -67.8167 59° Northeast 500 575 35,000  Level Montreal Center
01:48AM 52.6333 -67.6333 58° Northeast 490 564 35,000  Level Montreal Center
01:49AM 52.7167 -67.4167 67° East 500 575 35,000  Level Montreal Center
01:50AM 52.7667 -67.2167 63° Northeast 490 564 35,000  Level Montreal Center
01:51AM 52.8333 -67.0000 59° Northeast 490 564 35,000  Level Montreal Center
01:52AM 52.9000 -66.8167 63° Northeast 480 552 35,000  Level Montreal Center
01:53AM 52.9667 -66.6000 63° Northeast 490 564 35,000  Level Montreal Center
01:54AM 53.0167 -66.4333 63° Northeast 490 564 35,000  Level Montreal Center
01:55AM 53.0833 -66.2167 63° Northeast 500 575 35,000  Level Montreal Center
01:56AM 53.1500 -66.0000 53° Northeast 490 564 35,000  Level Montreal Center
01:57AM 53.2333 -65.8167 76° East 500 575 35,000  Level Montreal Center
01:58AM 53.2667 -65.5833 61° Northeast 500 575 35,000  Level Montreal Center
01:59AM 53.3333 -65.3833 53° Northeast 490 564 35,000  Level Montreal Center
02:00AM 53.4167 -65.2000 69° East 490 564 35,000  Level Montreal Center
02:01AM 53.4667 -64.9833 65° Northeast 490 564 35,000  Level Montreal Center
02:02AM 53.5167 -64.8000 63° Northeast 480 552 35,000  Level Montreal Center
02:03AM 53.5833 -64.5833 58° Northeast 480 552 35,000  Level Montreal Center
02:04AM 53.6500 -64.4000 69° East 490 564 35,000  Level Montreal Center
02:05AM 53.7000 -64.1833 62° Northeast 480 552 35,000  Level Montreal Center
02:06AM 53.7667 -63.9667 67° East 480 552 35,000  Level Montreal Center
02:07AM 53.8167 -63.7667 62° Northeast 490 564 35,000  Level Montreal Center
02:08AM 53.8833 -63.5500 60° Northeast 490 564 35,000  Level Montreal Center
02:09AM 53.9500 -63.3500 68° East 490 564 35,000  Level Montreal Center
02:10AM 54.0000 -63.1333 58° Northeast 490 564 35,000  Level Montreal Center
02:11AM 54.0667 -62.9500 70° East 480 552 35,000  Level Montreal Center
02:12AM 54.1167 -62.7167 68° East 480 552 35,000  Level Montreal Center
02:13AM 54.1667 -62.5000 60° Northeast 480 552 35,000  Level Montreal Center
02:14AM 54.2333 -62.3000 68° East 480 552 35,000  Level Montreal Center
02:15AM 54.2833 -62.0833 67° East 480 552 35,000  Level Montreal Center
02:16AM 54.3333 -61.8833 62° Northeast 480 552 35,000  Level Montreal Center
02:17AM 54.4000 -61.6667 67° East 480 552 35,000  Level Montreal Center
02:18AM 54.4500 -61.4667 67° East 470 541 35,000  Level Montreal Center
02:19AM 54.5000 -61.2667 68° East 470 541 35,000  Level Montreal Center
02:20AM 54.5500 -61.0500 67° East 470 541 35,000  Level Montreal Center
02:21AM 54.6000 -60.8500 60° Northeast 480 552 35,000  Level Montreal Center
02:22AM 54.6667 -60.6500 75° East 470 541 35,000  Level Montreal Center
02:23AM 54.7000 -60.4333 60° Northeast 470 541 35,000  Level Montreal Center
02:24AM 54.7667 -60.2333 62° Northeast 470 541 35,000  Level Montreal Center
02:25AM 54.8333 -60.0167 75° East 470 541 35,000  Level Montreal Center
02:26AM 54.8667 -59.8000 66° East 470 541 35,000  Level Montreal Center
02:27AM 54.9167 -59.6000 66° East 470 541 35,000  Level Montreal Center
02:28AM 54.9667 -59.4000 69° East 470 541 35,000  Level Montreal Center
02:29AM 55.0167 -59.1667 66° East 470 541 35,000  Level Montreal Center
02:30AM 55.0667 -58.9667 69° East 470 541 35,000  Level Montreal Center
02:31AM 55.1167 -58.7333 71° East 470 541 35,000  Level Montreal Center
02:32AM 55.1500 -58.5667 57° Northeast 470 541 35,000  Level Montreal Center
02:33AM 55.2167 -58.3833 68° East 460 529 35,000  Level Gander Center
02:34AM 55.2667 -58.1667 74° East 460 529 35,000  Level Gander Center
02:35AM 55.3000 -57.9667 68° East 460 529 35,000  Level Gander Center
02:36AM 55.3500 -57.7500 66° East 460 529 35,000  Level Gander Center
02:37AM 55.4000 -57.5500 75° East 460 529 35,000  Level Gander Center
02:38AM 55.4333 -57.3333 68° East 460 529 35,000  Level Gander Center
02:39AM 55.4833 -57.1167 69° East 470 541 35,000  Level Gander Center
02:40AM 55.5333 -56.8833 64° Northeast 470 541 35,000  Level Gander Center
02:41AM 55.5833 -56.7000 65° Northeast 470 541 35,000  Level Gander Center
02:42AM 55.6500 -56.4500 72° East 460 529 35,000  Level Gander Center
02:43AM 55.6833 -56.2667 66° East 460 529 35,000  Level Gander Center
02:44AM 55.7333 -56.0667 68° East 460 529 35,000  Level Gander Center
02:45AM 55.7833 -55.8500 68° East 470 541 35,000  Level Gander Center
02:46AM 55.8333 -55.6333 68° East 470 541 35,000  Level Gander Center
02:47AM 55.8833 -55.4167 66° East 470 541 35,000  Level Gander Center
02:48AM 55.9333 -55.2167 73° East 470 541 35,000  Level Gander Center
02:56AM 56.3934 -53.5346 74° East  Level FlightAware Approximate
02:57AM 56.4512 -53.3142 75° East  Level FlightAware Approximate
02:58AM 56.5086 -53.0931 75° East  Level FlightAware Approximate
02:59AM 56.5657 -52.8713 75° East  Level FlightAware Approximate
03:00AM 56.6223 -52.6488 75° East  Level FlightAware Approximate
03:01AM 56.6785 -52.4257 76° East  Level FlightAware Approximate
03:02AM 56.7343 -52.2020 76° East  Level FlightAware Approximate
03:03AM 56.7898 -51.9775 76° East  Level FlightAware Approximate
03:04AM 56.8448 -51.7524 76° East  Level FlightAware Approximate
03:05AM 56.8994 -51.5267 76° East  Level FlightAware Approximate
03:06AM 56.9536 -51.3002 77° East  Level FlightAware Approximate
03:07AM 57.0074 -51.0732 77° East  Level FlightAware Approximate
03:08AM 57.0601 -50.8485 77° East  Level FlightAware Approximate
03:09AM 57.1123 -50.6232 77° East  Level FlightAware Approximate
03:10AM 57.1642 -50.3973 78° East  Level FlightAware Approximate
03:11AM 57.2057 -50.1639 78° East  Level FlightAware Approximate
03:12AM 57.2467 -49.9300 78° East  Level FlightAware Approximate
03:13AM 57.2873 -49.6956 78° East  Level FlightAware Approximate
03:14AM 57.3274 -49.4607 79° East  Level FlightAware Approximate
03:15AM 57.3671 -49.2252 79° East  Level FlightAware Approximate
03:16AM 57.4063 -48.9893 79° East  Level FlightAware Approximate
03:17AM 57.4452 -48.7528 79° East  Level FlightAware Approximate
03:18AM 57.4836 -48.5158 79° East  Level FlightAware Approximate
03:19AM 57.5215 -48.2784 80° East  Level FlightAware Approximate
03:20AM 57.5590 -48.0404 80° East  Level FlightAware Approximate
03:21AM 57.5960 -47.8020 80° East  Level FlightAware Approximate
03:22AM 57.6326 -47.5631 80° East  Level FlightAware Approximate
03:23AM 57.6688 -47.3237 81° East  Level FlightAware Approximate
03:24AM 57.7044 -47.0838 81° East  Level FlightAware Approximate
03:25AM 57.7397 -46.8434 81° East  Level FlightAware Approximate
03:26AM 57.7744 -46.6026 81° East  Level FlightAware Approximate
03:27AM 57.8088 -46.3614 82° East  Level FlightAware Approximate
03:28AM 57.8426 -46.1196 82° East  Level FlightAware Approximate
03:29AM 57.8760 -45.8774 82° East  Level FlightAware Approximate
03:30AM 57.9090 -45.6348 82° East  Level FlightAware Approximate
03:31AM 57.9414 -45.3918 83° East  Level FlightAware Approximate
03:32AM 57.9734 -45.1482 83° East  Level FlightAware Approximate
03:33AM 58.0050 -44.9043 83° East  Level FlightAware Approximate
03:34AM 58.0360 -44.6599 83° East  Level FlightAware Approximate
03:35AM 58.0667 -44.4151 83° East  Level FlightAware Approximate
03:36AM 58.0968 -44.1699 84° East  Level FlightAware Approximate
03:37AM 58.1264 -43.9243 84° East  Level FlightAware Approximate
03:38AM 58.1556 -43.6783 84° East  Level FlightAware Approximate
03:39AM 58.1844 -43.4319 84° East  Level FlightAware Approximate
03:40AM 58.2126 -43.1851 85° East  Level FlightAware Approximate
03:41AM 58.2404 -42.9379 85° East  Level FlightAware Approximate
03:42AM 58.2677 -42.6903 85° East  Level FlightAware Approximate
03:43AM 58.2945 -42.4423 85° East  Level FlightAware Approximate
03:44AM 58.3208 -42.1940 86° East  Level FlightAware Approximate
03:45AM 58.3466 -41.9453 86° East  Level FlightAware Approximate
03:46AM 58.3720 -41.6962 86° East  Level FlightAware Approximate
03:47AM 58.3969 -41.4468 86° East  Level FlightAware Approximate
03:48AM 58.4213 -41.1970 87° East  Level FlightAware Approximate
03:49AM 58.4452 -40.9469 87° East  Level FlightAware Approximate
03:50AM 58.4686 -40.6964 87° East  Level FlightAware Approximate
03:51AM 58.4915 -40.4456 87° East  Level FlightAware Approximate
03:52AM 58.5072 -40.1922 88° East  Level FlightAware Approximate
03:53AM 58.5224 -39.9385 88° East  Level FlightAware Approximate
03:54AM 58.5371 -39.6846 88° East  Level FlightAware Approximate
03:55AM 58.5513 -39.4305 88° East  Level FlightAware Approximate
03:56AM 58.5649 -39.1763 89° East  Level FlightAware Approximate
03:57AM 58.5781 -38.9218 89° East  Level FlightAware Approximate
03:58AM 58.5908 -38.6671 89° East  Level FlightAware Approximate
03:59AM 58.6030 -38.4123 89° East  Level FlightAware Approximate
04:00AM 58.6146 -38.1572 90° East  Level FlightAware Approximate
04:01AM 58.6258 -37.9020 90° East  Level FlightAware Approximate
04:02AM 58.6365 -37.6467 90° East  Level FlightAware Approximate
04:03AM 58.6466 -37.3912 90° East  Level FlightAware Approximate
04:04AM 58.6562 -37.1355 91° East  Level FlightAware Approximate
04:05AM 58.6654 -36.8797 91° East  Level FlightAware Approximate
04:06AM 58.6740 -36.6238 91° East  Level FlightAware Approximate
04:07AM 58.6821 -36.3678 91° East  Level FlightAware Approximate
04:08AM 58.6898 -36.1116 92° East  Level FlightAware Approximate
04:09AM 58.6968 -35.8553 92° East  Level FlightAware Approximate
04:10AM 58.7034 -35.5990 92° East  Level FlightAware Approximate
04:11AM 58.7095 -35.3425 92° East  Level FlightAware Approximate
04:12AM 58.7151 -35.0860 93° East  Level FlightAware Approximate
04:13AM 58.7202 -34.8293 93° East  Level FlightAware Approximate
04:14AM 58.7247 -34.5727 93° East  Level FlightAware Approximate
04:15AM 58.7288 -34.3159 93° East  Level FlightAware Approximate
04:16AM 58.7323 -34.0591 94° East  Level FlightAware Approximate
04:17AM 58.7353 -33.8022 94° East  Level FlightAware Approximate
04:18AM 58.7378 -33.5453 94° East  Level FlightAware Approximate
04:19AM 58.7398 -33.2884 95° East  Level FlightAware Approximate
04:20AM 58.7413 -33.0314 95° East  Level FlightAware Approximate
04:21AM 58.7423 -32.7744 95° East  Level FlightAware Approximate
04:22AM 58.7428 -32.5174 95° East  Level FlightAware Approximate
04:23AM 58.7427 -32.2604 96° East  Level FlightAware Approximate
04:24AM 58.7422 -32.0034 96° East  Level FlightAware Approximate
04:25AM 58.7411 -31.7465 96° East  Level FlightAware Approximate
04:26AM 58.7395 -31.4895 96° East  Level FlightAware Approximate
04:27AM 58.7374 -31.2326 97° East  Level FlightAware Approximate
04:28AM 58.7348 -30.9757 97° East  Level FlightAware Approximate
04:29AM 58.7317 -30.7183 97° East  Level FlightAware Approximate
04:30AM 58.7281 -30.4610 97° East  Level FlightAware Approximate
04:31AM 58.7239 -30.2038 98° East  Level FlightAware Approximate
04:32AM 58.7159 -29.9470 98° East  Level FlightAware Approximate
04:33AM 58.7074 -29.6902 98° East  Level FlightAware Approximate
04:34AM 58.6983 -29.4336 98° East  Level FlightAware Approximate
04:35AM 58.6888 -29.1772 99° East  Level FlightAware Approximate
04:36AM 58.6787 -28.9208 99° East  Level FlightAware Approximate
04:37AM 58.6681 -28.6647 99° East  Level FlightAware Approximate
04:38AM 58.6570 -28.4087 99° East  Level FlightAware Approximate
04:39AM 58.6454 -28.1528 100° East  Level FlightAware Approximate
04:40AM 58.6333 -27.8972 100° East  Level FlightAware Approximate
04:41AM 58.6207 -27.6417 100° East  Level FlightAware Approximate
04:42AM 58.6076 -27.3864 101° East  Level FlightAware Approximate
04:43AM 58.5940 -27.1313 101° East  Level FlightAware Approximate
04:44AM 58.5702 -26.8791 101° East  Level FlightAware Approximate
04:45AM 58.5460 -26.6272 101° East  Level FlightAware Approximate
04:46AM 58.5212 -26.3757 101° East  Level FlightAware Approximate
04:47AM 58.4959 -26.1245 102° East  Level FlightAware Approximate
04:48AM 58.4702 -25.8737 102° East  Level FlightAware Approximate
04:49AM 58.4440 -25.6233 102° East  Level FlightAware Approximate
04:50AM 58.4173 -25.3733 102° East  Level FlightAware Approximate
04:51AM 58.3901 -25.1236 103° East  Level FlightAware Approximate
04:52AM 58.3624 -24.8743 103° East  Level FlightAware Approximate
04:53AM 58.3343 -24.6255 103° East  Level FlightAware Approximate
04:54AM 58.3056 -24.3770 103° East  Level FlightAware Approximate
04:55AM 58.2765 -24.1289 103° East  Level FlightAware Approximate
04:56AM 58.2469 -23.8812 104° East  Level FlightAware Approximate
04:57AM 58.2168 -23.6340 104° East  Level FlightAware Approximate
04:58AM 58.1862 -23.3871 104° East  Level FlightAware Approximate
04:59AM 58.1552 -23.1407 104° East  Level FlightAware Approximate
05:00AM 58.1237 -22.8948 104° East  Level FlightAware Approximate
05:01AM 58.0917 -22.6492 105° East  Level FlightAware Approximate
05:02AM 58.0592 -22.4042 105° East  Level FlightAware Approximate
05:03AM 58.0263 -22.1595 105° East  Level FlightAware Approximate
05:04AM 57.9929 -21.9153 105° East  Level FlightAware Approximate
05:05AM 57.9590 -21.6716 106° East  Level FlightAware Approximate
05:06AM 57.9247 -21.4284 106° East  Level FlightAware Approximate
05:07AM 57.8899 -21.1856 106° East  Level FlightAware Approximate
05:08AM 57.8547 -20.9433 106° East  Level FlightAware Approximate
05:09AM 57.8190 -20.7014 106° East  Level FlightAware Approximate
05:10AM 57.7828 -20.4601 107° East  Level FlightAware Approximate
05:11AM 57.7440 -20.2204 107° East  Level FlightAware Approximate
05:12AM 57.7048 -19.9812 107° East  Level FlightAware Approximate
05:13AM 57.6652 -19.7425 107° East  Level FlightAware Approximate
05:14AM 57.6251 -19.5044 107° East  Level FlightAware Approximate
05:15AM 57.5845 -19.2668 108° East  Level FlightAware Approximate
05:16AM 57.5435 -19.0297 108° East  Level FlightAware Approximate
05:17AM 57.5020 -18.7932 108° East  Level FlightAware Approximate
05:18AM 57.4602 -18.5572 108° East  Level FlightAware Approximate
05:19AM 57.4178 -18.3217 108° East  Level FlightAware Approximate
05:20AM 57.3751 -18.0868 109° East  Level FlightAware Approximate
05:21AM 57.3319 -17.8525 109° East  Level FlightAware Approximate
05:22AM 57.2882 -17.6187 109° East  Level FlightAware Approximate
05:23AM 57.2442 -17.3854 109° East  Level FlightAware Approximate
05:24AM 57.1997 -17.1527 109° East  Level FlightAware Approximate
05:25AM 57.1547 -16.9206 110° East  Level FlightAware Approximate
05:26AM 57.1094 -16.6890 110° East  Level FlightAware Approximate
05:27AM 57.0636 -16.4580 110° East  Level FlightAware Approximate
05:28AM 57.0175 -16.2281 110° East  Level FlightAware Approximate
05:29AM 56.9709 -15.9986 110° East  Level FlightAware Approximate
05:30AM 56.9240 -15.7698 111° Southeast  Level FlightAware Approximate
05:31AM 56.8766 -15.5415 111° Southeast  Level FlightAware Approximate
05:32AM 56.8288 -15.3139 111° Southeast  Level FlightAware Approximate
05:33AM 56.7806 -15.0868 111° Southeast  Level FlightAware Approximate
05:34AM 56.7318 -14.8594 111° Southeast  Level FlightAware Approximate
05:35AM 56.6826 -14.6326 112° Southeast  Level FlightAware Approximate
05:36AM 56.6330 -14.4065 112° Southeast  Level FlightAware Approximate
05:37AM 56.5829 -14.1809 112° Southeast  Level FlightAware Approximate
05:38AM 56.5325 -13.9559 112° Southeast  Level FlightAware Approximate
05:39AM 56.4817 -13.7315 112° Southeast  Level FlightAware Approximate
05:40AM 56.4304 -13.5077 112° Southeast  Level FlightAware Approximate
05:41AM 56.3787 -13.2845 113° Southeast  Level FlightAware Approximate
05:42AM 56.3267 -13.0619 113° Southeast  Level FlightAware Approximate
05:43AM 56.2743 -12.8400 113° Southeast  Level FlightAware Approximate
05:44AM 56.2214 -12.6186 113° Southeast  Level FlightAware Approximate
05:45AM 56.1682 -12.3979 113° Southeast  Level FlightAware Approximate
05:46AM 56.1145 -12.1778 114° Southeast  Level FlightAware Approximate
05:47AM 56.0605 -11.9583 114° Southeast  Level FlightAware Approximate
05:48AM 56.0061 -11.7394 114° Southeast  Level FlightAware Approximate
05:49AM 55.9513 -11.5211 114° Southeast  Level FlightAware Approximate
05:50AM 55.8952 -11.2996 114° Southeast  Level FlightAware Approximate
05:51AM 55.8386 -11.0788 114° Southeast  Level FlightAware Approximate
05:52AM 55.7817 -10.8587 115° Southeast  Level FlightAware Approximate
05:53AM 55.7243 -10.6392 115° Southeast  Level FlightAware Approximate
05:54AM 55.6666 -10.4203 115° Southeast  Level FlightAware Approximate
05:55AM 55.6085 -10.2021 115° Southeast  Level FlightAware Approximate
05:56AM 55.6630 -9.9871 117° Southeast  Level FlightAware Approximate
05:57AM 55.6011 -9.7722 117° Southeast  Level FlightAware Approximate
05:58AM 55.5389 -9.5579 117° Southeast  Level FlightAware Approximate
05:59AM 55.4763 -9.3444 117° Southeast  Level FlightAware Approximate
06:00AM 55.4133 -9.1315 117° Southeast  Level FlightAware Approximate
06:01AM 55.3499 -8.9193 117° Southeast  Level FlightAware Approximate
06:02AM 55.2808 -8.7131 117° Southeast  Level FlightAware Approximate
06:03AM 55.2114 -8.5076 117° Southeast  Level FlightAware Approximate
06:04AM 55.1416 -8.3028 118° Southeast  Level FlightAware Approximate
06:05AM 55.0714 -8.0987 118° Southeast  Level FlightAware Approximate
06:06AM 55.0010 -7.8954 118° Southeast  Level FlightAware Approximate
06:07AM 54.9301 -7.6927 118° Southeast  Level FlightAware Approximate
06:08AM 54.8590 -7.4908 118° Southeast  Level FlightAware Approximate
06:09AM 54.7875 -7.2896 117° Southeast  Level FlightAware Approximate
06:10AM 54.7157 -7.0891 117° Southeast  Level FlightAware Approximate
06:11AM 54.6436 -6.8893 117° Southeast  Level FlightAware Approximate
06:12AM 54.5711 -6.6902 117° Southeast  Level FlightAware Approximate
06:13AM 54.4983 -6.4918 117° Southeast  Level FlightAware Approximate
06:14AM 54.5098 -6.2628 119° Southeast  Level FlightAware Approximate
06:15AM 54.4246 -6.0800 119° Southeast  Level FlightAware Approximate
06:16AM 54.3392 -5.8979 118° Southeast  Level FlightAware Approximate
06:17AM 54.2535 -5.7165 117° Southeast  Level FlightAware Approximate
06:18AM 54.1675 -5.5359 116° Southeast  Level FlightAware Approximate
06:19AM 54.0828 -5.3591 115° Southeast  Level FlightAware Approximate
06:20AM 53.9978 -5.1830 114° Southeast  Level FlightAware Approximate
06:21AM 53.9125 -5.0077 112° Southeast  Level FlightAware Approximate
06:22AM 53.8270 -4.8330 109° East  Level FlightAware Approximate
06:23AM 53.7412 -4.6591 106° East  Level FlightAware Approximate
06:29AM 53.5104 -3.3684 125° Southeast 433 498 35,000  Level FlightAware ADS-B
06:29AM 53.4747 -3.2839 125° Southeast 435 501 35,000  Level FlightAware ADS-B
06:30AM 53.4119 -3.1358 125° Southeast 435 501 35,000  Level FlightAware ADS-B
06:30AM 53.3761 -3.0515 126° Southeast 436 502 35,000  Level FlightAware ADS-B
06:31AM 53.3405 -2.9686 126° Southeast 436 502 35,000  Level FlightAware ADS-B
06:32AM 53.2785 -2.8247 127° Southeast 435 501 35,000  Level FlightAware ADS-B
06:33AM 53.2284 -2.7140 144° Southeast 434 499 35,000  Level FlightAware ADS-B
06:33AM 53.1773 -2.6525 143° Southeast 432 497 35,000  Level FlightAware ADS-B
06:34AM 53.1220 -2.5830 141° Southeast 431 496 35,000  Level FlightAware ADS-B
06:34AM 53.0770 -2.5224 140° Southeast 430 495 35,000  Level FlightAware ADS-B
06:35AM 53.0253 -2.4508 140° Southeast 429 494 35,000  Level FlightAware ADS-B
06:35AM 52.9714 -2.3763 143° Southeast 426 490 35,000 -540 Level FlightAware ADS-B
06:36AM 52.9016 -2.2876 142° Southeast 422 486 34,300 -1,440 Descending FlightAware ADS-B
06:37AM 52.8516 -2.2237 142° Southeast 413 475 33,200 -1,980 Descending FlightAware ADS-B
06:37AM 52.7874 -2.1419 143° Southeast 404 465 31,800 -1,920 Descending FlightAware ADS-B
06:38AM 52.7429 -2.0857 143° Southeast 397 457 30,900 -1,860 Descending FlightAware ADS-B
06:38AM 52.6969 -2.0277 143° Southeast 390 449 29,900 -1,860 Descending FlightAware ADS-B
06:39AM 52.6502 -1.9691 143° Southeast 384 442 28,900 -1,800 Descending FlightAware ADS-B
06:39AM 52.6065 -1.9142 143° Southeast 378 435 28,000 -1,800 Descending FlightAware ADS-B
06:40AM 52.5644 -1.8615 143° Southeast 372 428 27,100 -1,800 Descending FlightAware ADS-B
06:40AM 52.5239 -1.8109 143° Southeast 367 422 26,200 -1,920 Descending FlightAware ADS-B
06:41AM 52.4834 -1.7606 143° Southeast 365 420 25,200 -2,400 Descending FlightAware ADS-B
06:41AM 52.4405 -1.7075 143° Southeast 375 432 23,800 -2,220 Descending FlightAware ADS-B
06:42AM 52.3967 -1.6537 143° Southeast 367 422 22,900 -1,680 Descending FlightAware ADS-B
06:43AM 52.3514 -1.5975 143° Southeast 359 413 22,000 -1,620 Descending FlightAware ADS-B
06:43AM 52.3193 -1.5580 143° Southeast 354 407 21,300 -1,740 Descending FlightAware ADS-B
06:44AM 52.2746 -1.5035 143° Southeast 350 403 20,300 -1,380 Descending FlightAware ADS-B
06:44AM 52.2400 -1.4609 140° Southeast 343 395 20,000 -720 Descending FlightAware ADS-B
06:45AM 52.2007 -1.4073 139° Southeast 344 396 19,600 -1,200 Descending FlightAware ADS-B
06:45AM 52.1614 -1.3522 140° Southeast 341 392 18,700 -1,740 Descending FlightAware ADS-B
06:46AM 52.1246 -1.3010 139° Southeast 340 391 17,800 -1,620 Descending FlightAware ADS-B
06:46AM 52.0850 -1.2458 140° Southeast 334 384 17,000 -780 Descending FlightAware ADS-B
06:47AM 52.0515 -1.1996 140° Southeast 299 344 17,000  Level FlightAware ADS-B
06:47AM 52.0256 -1.1641 140° Southeast 288 331 17,000  Level FlightAware ADS-B
06:48AM 51.9947 -1.1213 140° Southeast 287 330 17,000  Level FlightAware ADS-B
06:48AM 51.9629 -1.0775 138° Southeast 287 330 17,000  Level FlightAware ADS-B
06:48AM 51.9509 -1.0597 132° Southeast 286 329 17,000  Level FlightAware ADS-B
06:48AM 51.9423 -1.0444 126° Southeast 286 329 17,000 -600 Level FlightAware ADS-B
06:49AM 51.9337 -1.0255 122° Southeast 285 328 16,800 -1,200 Descending FlightAware ADS-B
06:49AM 51.9130 -0.9716 123° Southeast 283 326 16,200 -1,020 Descending FlightAware ADS-B
06:50AM 51.8908 -0.9155 122° Southeast 283 326 15,800 -1,020 Descending FlightAware ADS-B
06:50AM 51.8697 -0.8606 122° Southeast 280 322 15,200 -840 Descending FlightAware ADS-B
06:51AM 51.8502 -0.8106 123° Southeast 288 331 15,000 -240 Descending FlightAware ADS-B
06:51AM 51.8287 -0.7562 122° Southeast 285 328 15,000  Level FlightAware ADS-B
06:52AM 51.8070 -0.7011 123° Southeast 283 326 15,000  Level FlightAware ADS-B
06:52AM 51.7846 -0.6445 122° Southeast 283 326 15,000  Level FlightAware ADS-B
06:53AM 51.7633 -0.5904 123° Southeast 286 329 15,000 -360 Level FlightAware ADS-B
06:53AM 51.7423 -0.5380 129° Southeast 282 325 14,700 -660 Descending FlightAware ADS-B
06:53AM 51.7362 -0.5258 140° Southeast 279 321 14,600 -960 Descending FlightAware ADS-B
06:53AM 51.7312 -0.5191 149° Southeast 277 319 14,500 -1,200 Descending FlightAware ADS-B
06:53AM 51.7260 -0.5140 161° South 274 315 14,400 -1,740 Descending FlightAware ADS-B
06:54AM 51.7147 -0.5078 173° South 270 311 14,100 -1,320 Descending FlightAware ADS-B
06:54AM 51.7096 -0.5067 182° South 270 311 14,100 -600 Level FlightAware ADS-B
06:54AM 51.7027 -0.5071 191° South 270 311 14,000 -600 Descending FlightAware ADS-B
06:54AM 51.6958 -0.5092 200° South 269 310 14,000  Level FlightAware ADS-B
06:54AM 51.6877 -0.5140 211° Southwest 267 307 14,000  Level FlightAware ADS-B
06:54AM 51.6822 -0.5193 220° Southwest 265 305 14,000  Level FlightAware ADS-B
06:54AM 51.6776 -0.5255 229° Southwest 261 300 14,000  Level FlightAware ADS-B
06:54AM 51.6751 -0.5301 236° Southwest 259 298 14,000  Level FlightAware ADS-B
06:54AM 51.6706 -0.5408 247° West 256 295 14,000  Level FlightAware ADS-B
06:54AM 51.6675 -0.5526 257° West 254 292 14,000  Level FlightAware ADS-B
06:55AM 51.6660 -0.5633 266° West 253 291 14,000  Level FlightAware ADS-B
06:55AM 51.6655 -0.5740 276° West 253 291 14,000  Level FlightAware ADS-B
06:55AM 51.6660 -0.5823 280° West 254 292 14,000 -720 Level FlightAware ADS-B
06:55AM 51.6670 -0.5913 291° West 255 293 13,900 -720 Descending FlightAware ADS-B
06:55AM 51.6689 -0.5994 297° West 255 293 13,900 -840 Level FlightAware ADS-B
06:55AM 51.6744 -0.6166 296° West 255 293 13,700 -1,080 Descending FlightAware ADS-B
06:55AM 51.6780 -0.6285 292° West 253 291 13,600 -1,380 Descending FlightAware ADS-B
06:56AM 51.6867 -0.6633 296° West 252 290 13,100 -780 Descending FlightAware ADS-B
06:56AM 51.7005 -0.7091 301° West 255 293 13,000 -180 Descending FlightAware ADS-B
06:56AM 51.7054 -0.7224 313° West 256 295 13,000  Level FlightAware ADS-B
06:56AM 51.7090 -0.7285 321° Northwest 256 295 13,000  Level FlightAware ADS-B
06:56AM 51.7133 -0.7341 329° Northwest 257 296 13,000  Level FlightAware ADS-B
06:56AM 51.7193 -0.7399 337° Northwest 258 297 13,000  Level FlightAware ADS-B
06:56AM 51.7246 -0.7435 342° North 260 299 13,000  Level FlightAware ADS-B
06:56AM 51.7281 -0.7454 347° North 261 300 13,000  Level FlightAware ADS-B
06:57AM 51.7327 -0.7471 359° North 263 303 13,000  Level FlightAware ADS-B
06:57AM 51.7463 -0.7474 15° North 268 308 13,000  Level FlightAware ADS-B
06:57AM 51.7556 -0.7435 25° Northeast 270 311 13,000  Level FlightAware ADS-B
06:57AM 51.7602 -0.7401 35° Northeast 273 314 13,000  Level FlightAware ADS-B
06:57AM 51.7671 -0.7323 46° Northeast 276 318 13,000 -480 Level FlightAware ADS-B
06:57AM 51.7736 -0.7214 57° Northeast 279 321 12,900 -1,020 Descending FlightAware ADS-B
06:57AM 51.7774 -0.7117 69° East 281 323 12,800 -1,140 Descending FlightAware ADS-B
06:57AM 51.7798 -0.7018 78° East 281 323 12,700 -1,020 Descending FlightAware ADS-B
06:57AM 51.7815 -0.6886 90° East 279 321 12,600 -1,200 Descending FlightAware ADS-B
06:58AM 51.7815 -0.6794 95° East 278 320 12,500 -780 Descending FlightAware ADS-B
06:58AM 51.7810 -0.6709 106° East 276 318 12,500 -1,140 Level FlightAware ADS-B
06:58AM 51.7786 -0.6575 116° Southeast 274 315 12,300 -1,260 Descending FlightAware ADS-B
06:58AM 51.7691 -0.6266 116° Southeast 269 310 12,000 -420 Descending FlightAware ADS-B
06:58AM 51.7526 -0.5718 118° Southeast 273 314 12,000  Level FlightAware ADS-B
06:59AM 51.7420 -0.5394 124° Southeast 271 312 12,000 -240 Level FlightAware ADS-B
06:59AM 51.7377 -0.5293 134° Southeast 268 308 11,900 -600 Descending FlightAware ADS-B
06:59AM 51.7348 -0.5244 142° Southeast 266 306 11,900 -780 Level FlightAware ADS-B
06:59AM 51.7305 -0.5191 152° Southeast 264 304 11,800 -1,380 Descending FlightAware ADS-B
06:59AM 51.7257 -0.5150 159° South 262 302 11,700 -1,380 Descending FlightAware ADS-B
06:59AM 51.7204 -0.5118 167° South 259 298 11,600 -1,380 Descending FlightAware ADS-B
06:59AM 51.7157 -0.5100 175° South 257 296 11,500 -1,380 Descending FlightAware ADS-B
06:59AM 51.7099 -0.5092 182° South 255 293 11,400 -1,380 Descending FlightAware ADS-B
06:59AM 51.7044 -0.5095 191° South 253 291 11,300 -1,740 Descending FlightAware ADS-B
06:59AM 51.7010 -0.5106 198° South 252 290 11,200 -1,500 Descending FlightAware ADS-B
07:00AM 51.6964 -0.5129 205° Southwest 249 287 11,100 -780 Descending FlightAware ADS-B
07:00AM 51.6929 -0.5155 212° Southwest 248 285 11,100 -900 Level FlightAware ADS-B
07:00AM 51.6886 -0.5198 220° Southwest 249 287 11,000 -720 Descending FlightAware ADS-B
07:00AM 51.6842 -0.5258 230° Southwest 248 285 11,000  Level FlightAware ADS-B
07:00AM 51.6787 -0.5365 239° Southwest 248 285 11,000  Level FlightAware ADS-B
07:00AM 51.6761 -0.5435 248° West 248 285 11,000  Level FlightAware ADS-B
07:00AM 51.6744 -0.5504 257° West 247 284 11,000  Level FlightAware ADS-B
07:00AM 51.6728 -0.5613 268° West 246 283 11,000  Level FlightAware ADS-B
07:00AM 51.6726 -0.5730 276° West 245 282 11,000  Level FlightAware ADS-B
07:00AM 51.6731 -0.5803 287° West 247 284 11,000  Level FlightAware ADS-B
07:00AM 51.6742 -0.5862 289° West 247 284 11,000  Level FlightAware ADS-B
07:00AM 51.6757 -0.5931 296° West 248 285 11,000  Level FlightAware ADS-B
07:01AM 51.6823 -0.6149 294° West 249 287 11,000 -600 Level FlightAware ADS-B
07:01AM 51.6964 -0.6659 296° West 245 282 10,600 -1,020 Descending FlightAware ADS-B
07:02AM 51.7077 -0.7028 301° West 243 280 10,100 -1,140 Descending FlightAware ADS-B
07:02AM 51.7104 -0.7100 309° West 244 281 10,100 -720 Level FlightAware ADS-B
07:02AM 51.7132 -0.7155 320° Northwest 245 282 10,000 -600 Descending FlightAware ADS-B
07:02AM 51.7181 -0.7222 332° Northwest 249 287 10,000  Level FlightAware ADS-B
07:02AM 51.7259 -0.7289 340° North 252 290 10,000  Level FlightAware ADS-B
07:02AM 51.7322 -0.7327 350° North 255 293 10,000  Level FlightAware ADS-B
07:02AM 51.7391 -0.7346 359° North 257 296 10,000  Level FlightAware ADS-B
07:02AM 51.7453 -0.7347 12° North 259 298 10,000  Level FlightAware ADS-B
07:02AM 51.7543 -0.7316 20° North 261 300 10,000  Level FlightAware ADS-B
07:02AM 51.7580 -0.7294 30° Northeast 261 300 10,000  Level FlightAware ADS-B
07:02AM 51.7617 -0.7260 34° Northeast 262 302 10,000  Level FlightAware ADS-B
07:02AM 51.7652 -0.7222 45° Northeast 262 302 10,000  Level FlightAware ADS-B
07:03AM 51.7708 -0.7131 54° Northeast 264 304 10,000  Level FlightAware ADS-B
07:03AM 51.7743 -0.7052 66° East 265 305 10,000  Level FlightAware ADS-B
07:03AM 51.7774 -0.6940 76° East 266 306 10,000  Level FlightAware ADS-B
07:03AM 51.7788 -0.6848 88° East 267 307 10,000  Level FlightAware ADS-B
07:03AM 51.7791 -0.6717 99° East 267 307 10,000  Level FlightAware ADS-B
07:03AM 51.7781 -0.6619 107° East 266 306 10,000  Level FlightAware ADS-B
07:03AM 51.7765 -0.6535 116° Southeast 265 305 10,000  Level FlightAware ADS-B
07:04AM 51.7605 -0.5994 118° Southeast 263 303 10,000  Level FlightAware ADS-B
07:04AM 51.7437 -0.5482 120° Southeast 264 304 10,000  Level FlightAware ADS-B
07:04AM 51.7401 -0.5380 125° Southeast 265 305 10,000  Level FlightAware ADS-B
07:05AM 51.7185 -0.4891 126° Southeast 263 303 10,000  Level FlightAware ADS-B
07:05AM 51.6967 -0.4407 126° Southeast 263 303 10,000  Level FlightAware ADS-B
07:06AM 51.6836 -0.4113 127° Southeast 263 303 10,000  Level FlightAware ADS-B
07:06AM 51.6807 -0.4051 135° Southeast 263 303 10,000  Level FlightAware ADS-B
07:06AM 51.6764 -0.3983 143° Southeast 261 300 10,000  Level FlightAware ADS-B
07:06AM 51.6720 -0.3930 151° Southeast 258 297 10,000  Level FlightAware ADS-B
07:06AM 51.6689 -0.3902 159° South 256 295 10,000  Level FlightAware ADS-B
07:06AM 51.6641 -0.3873 168° South 254 292 10,000 -780 Level FlightAware ADS-B
07:06AM 51.6596 -0.3858 175° South 250 288 9,900 -780 Descending FlightAware ADS-B
07:06AM 51.6552 -0.3852 182° South 248 285 9,900 -900 Level FlightAware ADS-B
07:06AM 51.6512 -0.3854 188° South 245 282 9,800 -1,740 Descending FlightAware ADS-B
07:06AM 51.6477 -0.3862 195° South 244 281 9,700 -780 Descending FlightAware ADS-B
07:06AM 51.6429 -0.3883 204° Southwest 241 277 9,700 -780 Level FlightAware ADS-B
07:06AM 51.6385 -0.3914 213° Southwest 241 277 9,600 -1,380 Descending FlightAware ADS-B
07:06AM 51.6344 -0.3957 220° Southwest 239 275 9,500 -1,500 Descending FlightAware ADS-B
07:06AM 51.6318 -0.3993 227° Southwest 238 274 9,400 -2,040 Descending FlightAware ADS-B
07:06AM 51.6292 -0.4037 235° Southwest 238 274 9,300 -1,740 Descending FlightAware ADS-B
07:06AM 51.6268 -0.4092 244° Southwest 238 274 9,200 -1,500 Descending FlightAware ADS-B
07:07AM 51.6249 -0.4156 253° West 237 273 9,100 -780 Descending FlightAware ADS-B
07:07AM 51.6237 -0.4220 259° West 237 273 9,100 -900 Level FlightAware ADS-B
07:07AM 51.6230 -0.4278 266° West 239 275 9,000 -900 Descending FlightAware ADS-B
07:07AM 51.6227 -0.4343 270° West 240 276 9,000  Level FlightAware ADS-B
07:07AM 51.6227 -0.4644 269° West 243 280 9,000  Level FlightAware ADS-B
07:07AM 51.6223 -0.4933 270° West 243 280 9,000 -240 Level FlightAware ADS-B
07:08AM 51.6222 -0.5219 269° West 246 283 8,900 -600 Descending FlightAware ADS-B
07:08AM 51.6218 -0.5501 270° West 244 281 8,700 -780 Descending FlightAware ADS-B
07:08AM 51.6217 -0.5784 269° West 241 277 8,500 -780 Descending FlightAware ADS-B
07:08AM 51.6213 -0.6058 269° West 239 275 8,300 -720 Descending FlightAware ADS-B
07:08AM 51.6211 -0.6233 269° West 240 276 8,200 -900 Descending FlightAware ADS-B
07:09AM 51.6210 -0.6307 258° West 239 275 8,100 -780 Descending FlightAware ADS-B
07:09AM 51.6201 -0.6377 255° West 238 274 8,100 -600 Level FlightAware ADS-B
07:09AM 51.6182 -0.6492 253° West 238 274 8,000 -840 Descending FlightAware ADS-B
07:09AM 51.6133 -0.6747 253° West 239 275 7,800 -1,020 Descending FlightAware ADS-B
07:09AM 51.6083 -0.7002 252° West 238 274 7,500 -960 Descending FlightAware ADS-B
07:10AM 51.6026 -0.7285 252° West 237 273 7,300 -900 Descending FlightAware ADS-B
07:10AM 51.5987 -0.7476 249° West 238 274 7,100 -1,080 Descending FlightAware ADS-B
07:10AM 51.5966 -0.7565 239° Southwest 238 274 7,000 -960 Descending FlightAware ADS-B
07:10AM 51.5925 -0.7675 236° Southwest 238 274 6,900 -840 Descending FlightAware ADS-B
07:10AM 51.5834 -0.7895 236° Southwest 232 267 6,700 -780 Descending FlightAware ADS-B
07:10AM 51.5741 -0.8118 236° Southwest 226 260 6,500 -960 Descending FlightAware ADS-B
07:11AM 51.5652 -0.8331 236° Southwest 211 243 6,200 -1,020 Descending FlightAware ADS-B
07:11AM 51.5609 -0.8432 235° Southwest 207 238 6,100 -540 Descending FlightAware ADS-B
07:11AM 51.5588 -0.8480 228° Southwest 207 238 6,100 -900 Level FlightAware ADS-B
07:11AM 51.5569 -0.8514 221° Southwest 206 237 6,000 -1,020 Descending FlightAware ADS-B
07:11AM 51.5540 -0.8556 212° Southwest 206 237 6,000 -720 Level FlightAware ADS-B
07:11AM 51.5501 -0.8595 201° Southwest 206 237 5,900 -1,380 Descending FlightAware ADS-B
07:11AM 51.5470 -0.8614 192° South 205 236 5,800 -1,020 Descending FlightAware ADS-B
07:11AM 51.5442 -0.8624 185° South 205 236 5,800  Level FlightAware ADS-B
07:11AM 51.5406 -0.8630 178° South 204 235 5,800 -780 Level FlightAware ADS-B
07:11AM 51.5288 -0.8623 177° South 203 234 5,600 -1,200 Descending FlightAware ADS-B
07:12AM 51.5218 -0.8616 174° South 201 231 5,400 -1,020 Descending FlightAware ADS-B
07:12AM 51.5180 -0.8609 166° South 200 230 5,400 -780 Level FlightAware ADS-B
07:12AM 51.5144 -0.8595 156° South 199 229 5,300 -1,740 Descending FlightAware ADS-B
07:12AM 51.5118 -0.8577 148° Southeast 197 227 5,200 -900 Descending FlightAware ADS-B
07:12AM 51.5087 -0.8546 137° Southeast 196 226 5,200 -780 Level FlightAware ADS-B
07:12AM 51.5065 -0.8513 130° Southeast 194 223 5,100 -1,740 Descending FlightAware ADS-B
07:12AM 51.5044 -0.8473 124° Southeast 192 221 5,000 -1,020 Descending FlightAware ADS-B
07:12AM 51.5029 -0.8437 116° Southeast 191 220 5,000  Level FlightAware ADS-B
07:12AM 51.5017 -0.8398 117° Southeast 190 219 5,000 -960 Level FlightAware ADS-B
07:12AM 51.4979 -0.8276 113° Southeast 192 221 4,800 -1,200 Descending FlightAware ADS-B
07:12AM 51.4962 -0.8211 107° East 191 220 4,700 -1,200 Descending FlightAware ADS-B
07:12AM 51.4950 -0.8149 99° East 190 219 4,600 -780 Descending FlightAware ADS-B
07:12AM 51.4945 -0.8099 96° East 189 217 4,600 -1,140 Level FlightAware ADS-B
07:13AM 51.4938 -0.7991 94° East 188 216 4,400 -1,200 Descending FlightAware ADS-B
07:13AM 51.4934 -0.7888 92° East 187 215 4,300 -840 Descending FlightAware ADS-B
07:13AM 51.4931 -0.7775 94° East 186 214 4,100 -900 Descending FlightAware ADS-B
07:13AM 51.4927 -0.7684 88° East 187 215 4,000 -2,280 Descending FlightAware ADS-B
07:13AM 51.4929 -0.7564 90° East 187 215 3,800 -2,280 Descending FlightAware ADS-B
07:13AM 51.4929 -0.7517 90° East 186 214 3,700 -780 Descending FlightAware ADS-B
07:13AM 51.4929 -0.7451 88° East 186 214 3,700 -900 Level FlightAware ADS-B
07:14AM 51.4934 -0.7226 89° East 184 212 3,400 -1,200 Descending FlightAware ADS-B
07:14AM 51.4936 -0.7031 89° East 174 200 3,100 -1,020 Descending FlightAware ADS-B
07:14AM 51.4938 -0.6841 90° East 167 192 2,900 -1,020 Descending FlightAware ADS-B
07:14AM 51.4939 -0.6649 89° East 163 188 2,600 -960 Descending FlightAware ADS-B
07:15AM 51.4941 -0.6462 89° East 161 185 2,400 -1,020 Descending FlightAware ADS-B
07:15AM 51.4943 -0.6280 90° East 159 183 2,100 -1,020 Descending FlightAware ADS-B
07:15AM 51.4943 -0.6097 90° East 158 182 1,900 -840 Descending FlightAware ADS-B